Time;durP1;ratioP1;P1;durP2;ratioP2;P2;SDS_P1;SDS_P2;PMS_P1;PMS_P2;Temp;Humidity;BMP_temperature;BMP_pressure;BME280_temperature;BME280_humidity;BME280_pressure;Samples;Min_cycle;Max_cycle;Signal;HPM_P1;HPM_P2
2023/10/07 00:03:20;;;;;;;45.95;20.75;;;384.40;2329.60;;;;;;5053589;28;20254;-81
2023/10/07 00:05:47;;;;;;;48.03;19.65;;;384.50;2329.60;;;;;;5053752;28;20211;-76
2023/10/07 00:08:16;;;;;;;37.60;20.33;;;384.50;2329.60;;;;;;5036144;28;20124;-80
2023/10/07 00:10:46;;;;;;;30.98;14.32;;;384.60;2329.60;;;;;;5053427;28;20482;-78
2023/10/07 00:13:13;;;;;;;34.22;16.35;;;384.60;2329.60;;;;;;5052887;28;20057;-81
2023/10/07 00:15:43;;;;;;;33.22;12.23;;;384.70;2329.60;;;;;;5053247;28;20079;-77
2023/10/07 00:18:13;;;;;;;30.75;14.02;;;384.50;2329.60;;;;;;5053487;28;20075;-81
2023/10/07 00:20:56;;;;;;;30.75;15.13;;;384.00;2329.60;;;;;;5053500;28;20495;-78
2023/10/07 00:23:26;;;;;;;28.23;13.40;;;359.30;2329.60;;;;;;5052607;28;20056;-78
2023/10/07 00:25:53;;;;;;;27.23;13.65;;;384.00;2329.60;;;;;;5053397;28;20049;-78
2023/10/07 00:28:32;;;;;;;31.60;12.82;;;359.30;2329.60;;;;;;5053176;28;20029;-79
2023/10/07 00:31:05;;;;;;;24.67;12.55;;;359.20;2329.60;;;;;;5053410;28;20176;-80
2023/10/07 00:34:02;;;;;;;32.08;13.30;;;359.10;2329.60;;;;;;5054700;28;20029;-78
2023/10/07 00:39:07;;;;;;;19.35;9.13;;;358.90;2329.60;;;;;;5074973;28;20085;-77
2023/10/07 00:41:39;;;;;;;22.05;10.93;;;358.90;2329.60;;;;;;5075015;28;20056;-77
2023/10/07 00:44:17;;;;;;;21.67;9.93;;;359.10;2329.60;;;;;;5073425;28;20080;-77
2023/10/07 00:46:48;;;;;;;21.33;10.63;;;359.10;2329.60;;;;;;5074907;28;20078;-80
2023/10/07 00:49:22;;;;;;;25.67;10.63;;;359.20;2329.60;;;;;;5073501;28;20431;-78
2023/10/07 00:51:49;;;;;;;23.40;11.73;;;359.10;2329.60;;;;;;5074640;28;20127;-77
2023/10/07 00:54:23;;;;;;;24.70;12.05;;;359.00;2329.60;;;;;;5074439;28;20023;-78
2023/10/07 00:57:07;;;;;;;25.83;13.27;;;359.00;2329.60;;;;;;5074995;28;20028;-77
2023/10/07 00:59:34;;;;;;;37.65;15.20;;;359.00;2329.60;;;;;;5073521;28;20036;-81
2023/10/07 01:02:05;;;;;;;35.00;14.85;;;358.90;2329.60;;;;;;5073150;28;20040;-79
2023/10/07 01:04:40;;;;;;;28.02;15.15;;;358.90;2329.60;;;;;;5073461;28;20041;-76
2023/10/07 01:07:19;;;;;;;31.45;14.18;;;358.90;2329.60;;;;;;5073306;28;20100;-78
2023/10/07 01:09:59;;;;;;;36.30;15.90;;;358.90;2329.60;;;;;;5074293;28;20036;-77
2023/10/07 01:12:35;;;;;;;25.75;13.18;;;358.70;2329.60;;;;;;5072866;28;20044;-78
2023/10/07 01:15:03;;;;;;;;;;;358.80;2329.60;;;;;;5074492;28;20021;-77
2023/10/07 01:17:31;;;;;;;25.55;11.80;;;358.80;2329.60;;;;;;5074331;28;20001;-76
2023/10/07 01:19:57;;;;;;;30.50;13.27;;;358.70;2329.60;;;;;;5055599;28;20024;-78
2023/10/07 01:22:35;;;;;;;37.20;13.15;;;358.70;2329.60;;;;;;5052917;28;20029;-79
2023/10/07 01:25:06;;;;;;;27.13;11.73;;;358.70;2329.60;;;;;;5059433;28;20074;-81
2023/10/07 01:27:41;;;;;;;30.10;12.75;;;358.80;2329.60;;;;;;5074060;28;20027;-80
2023/10/07 01:35:25;;;;;;;39.78;16.35;;;358.80;2329.60;;;;;;5067148;28;20039;-79
2023/10/07 01:37:59;;;;;;;27.38;14.70;;;358.80;2329.60;;;;;;5066377;28;20025;-78
2023/10/07 01:40:41;;;;;;;36.55;15.10;;;358.80;2329.60;;;;;;5066886;28;20105;-79
2023/10/07 01:43:07;;;;;;;34.13;15.23;;;358.90;2329.60;;;;;;5072610;28;20036;-80
2023/10/07 01:45:39;;;;;;;38.38;15.73;;;358.80;2329.60;;;;;;5071732;28;20021;-80
2023/10/07 01:48:08;;;;;;;28.77;13.15;;;358.70;2329.60;;;;;;5073608;28;20029;-80
2023/10/07 01:50:41;;;;;;;30.90;14.63;;;358.60;2329.60;;;;;;5073088;28;20050;-79
2023/10/07 01:53:08;;;;;;;23.67;12.57;;;358.60;2329.60;;;;;;5073847;28;20081;-77
2023/10/07 01:55:43;;;;;;;28.50;11.95;;;358.60;2329.60;;;;;;5073547;28;20009;-81
2023/10/07 01:58:13;;;;;;;22.58;13.45;;;358.40;2329.60;;;;;;5073625;28;20049;-81
2023/10/07 02:00:51;;;;;;;43.28;19.27;;;358.70;2329.60;;;;;;5061031;28;20490;-81
2023/10/07 02:03:21;;;;;;;44.70;17.63;;;333.60;2329.60;;;;;;5072280;28;20040;-81
2023/10/07 02:05:51;;;;;;;49.17;20.30;;;333.50;2329.60;;;;;;5072124;28;20017;-80
2023/10/07 02:08:24;;;;;;;35.33;16.77;;;333.40;2329.60;;;;;;5072148;28;20077;-80
2023/10/07 02:10:58;;;;;;;32.05;15.40;;;333.40;2329.60;;;;;;5073927;28;20021;-77
2023/10/07 02:13:27;;;;;;;73.03;28.15;;;333.20;2329.60;;;;;;5113366;28;20040;-80
2023/10/07 02:15:57;;;;;;;148.63;56.75;;;333.10;2329.60;;;;;;5114060;28;20033;-77
2023/10/07 02:18:27;;;;;;;185.20;73.40;;;333.00;2329.60;;;;;;5095355;28;20024;-79
2023/10/07 02:21:05;;;;;;;178.70;60.83;;;332.90;2329.60;;;;;;5109789;28;20470;-79
2023/10/07 02:23:40;;;;;;;125.47;46.65;;;332.90;2329.60;;;;;;5091783;28;20497;-77
2023/10/07 02:26:07;;;;;;;93.60;37.65;;;332.80;2329.60;;;;;;5086312;28;20074;-80
2023/10/07 02:28:36;;;;;;;161.90;57.08;;;308.10;2304.00;;;;;;5093081;28;20097;-78
2023/10/07 02:31:07;;;;;;;147.65;52.88;;;308.00;2304.00;;;;;;5099976;28;20024;-78
2023/10/07 02:33:45;;;;;;;108.63;42.00;;;307.90;2304.00;;;;;;5098731;28;20043;-82
2023/10/07 02:36:27;;;;;;;150.07;54.47;;;307.80;2304.00;;;;;;5115705;28;20019;-78
2023/10/07 02:38:54;;;;;;;55.22;22.42;;;307.80;2304.00;;;;;;5097515;28;20529;-80
2023/10/07 02:41:20;;;;;;;41.72;17.55;;;307.80;2304.00;;;;;;5091083;28;20031;-81
2023/10/07 02:43:49;;;;;;;28.90;11.82;;;307.80;2304.00;;;;;;5097542;28;20035;-80
2023/10/07 02:46:31;;;;;;;23.20;8.85;;;307.90;2304.00;;;;;;5102266;28;20429;-78
2023/10/07 02:49:05;;;;;;;22.70;9.85;;;307.90;2304.00;;;;;;5107922;28;20016;-78
2023/10/07 02:51:33;;;;;;;20.58;10.07;;;307.80;2304.00;;;;;;5106693;28;20020;-80
2023/10/07 02:54:17;;;;;;;19.00;9.50;;;307.60;2304.00;;;;;;5096260;28;20047;-77
2023/10/07 02:56:44;;;;;;;24.88;9.57;;;307.50;2304.00;;;;;;5098859;28;20030;-81
2023/10/07 03:00:10;;;;;;;15.15;8.05;;;307.50;2304.00;;;;;;5109833;28;20035;-80
2023/10/07 03:05:58;;;;;;;23.75;8.90;;;307.20;2304.00;;;;;;5107638;28;20074;-77
2023/10/07 03:07:49;;;;;;;20.88;8.80;;;307.30;2304.00;;;;;;5094599;28;20039;-81
2023/10/07 03:10:18;;;;;;;22.10;9.50;;;307.50;2304.00;;;;;;5113868;28;20148;-80
2023/10/07 03:12:49;;;;;;;19.02;9.35;;;307.60;2304.00;;;;;;5096042;28;20047;-77
2023/10/07 03:15:28;;;;;;;21.95;9.18;;;307.60;2304.00;;;;;;5107446;28;20058;-78
2023/10/07 03:17:54;;;;;;;20.60;9.30;;;307.70;2304.00;;;;;;5111475;28;20585;-78
2023/10/07 03:28:24;;;;;;;20.65;10.02;;;308.00;2304.00;;;;;;5034413;28;20087;-78
2023/10/07 03:30:55;;;;;;;24.67;12.10;;;332.80;2329.60;;;;;;5040260;28;20133;-77
2023/10/07 03:33:31;;;;;;;18.15;10.65;;;332.90;2329.60;;;;;;5043948;28;20111;-78
2023/10/07 03:38:27;;;;;;;19.67;10.20;;;333.00;2329.60;;;;;;5036037;28;20108;-80
2023/10/07 03:40:54;;;;;;;19.85;10.23;;;333.00;2329.60;;;;;;5032747;28;20072;-77
2023/10/07 03:43:26;;;;;;;20.45;10.82;;;332.90;2329.60;;;;;;5024675;28;20110;-81
2023/10/07 03:45:56;;;;;;;21.00;12.07;;;332.90;2329.60;;;;;;5041096;28;20064;-78
2023/10/07 03:48:23;;;;;;;22.63;10.65;;;332.90;2329.60;;;;;;5036981;28;20103;-79
2023/10/07 03:51:06;;;;;;;20.52;10.40;;;332.80;2329.60;;;;;;5032451;28;20363;-79
2023/10/07 03:53:44;;;;;;;21.48;11.00;;;332.80;2329.60;;;;;;5037247;28;20494;-81
2023/10/07 03:56:15;;;;;;;21.42;11.32;;;332.90;2329.60;;;;;;5033213;28;20022;-81
2023/10/07 03:58:44;;;;;;;20.20;11.43;;;332.80;2329.60;;;;;;5039611;28;20112;-78
2023/10/07 04:01:16;;;;;;;23.73;12.77;;;332.80;2329.60;;;;;;5043930;28;20030;-80
2023/10/07 04:03:52;;;;;;;28.27;12.25;;;332.80;2329.60;;;;;;5029787;28;20450;-80
2023/10/07 04:06:20;;;;;;;25.40;13.50;;;332.80;2329.60;;;;;;5088566;28;20036;-80
2023/10/07 04:08:52;;;;;;;23.88;13.73;;;332.90;2329.60;;;;;;5095045;28;20034;-78
2023/10/07 04:11:19;;;;;;;23.85;12.10;;;332.90;2329.60;;;;;;5110705;28;20032;-78
2023/10/07 04:13:46;;;;;;;22.55;12.60;;;332.90;2329.60;;;;;;5105496;28;20028;-77
2023/10/07 04:16:24;;;;;;;22.00;12.38;;;332.80;2329.60;;;;;;5097208;28;20502;-78
2023/10/07 04:19:06;;;;;;;29.88;15.15;;;332.80;2329.60;;;;;;5097285;28;20016;-78
2023/10/07 04:21:41;;;;;;;31.88;14.60;;;332.90;2329.60;;;;;;5103394;28;20058;-78
2023/10/07 04:24:10;;;;;;;27.60;14.65;;;332.80;2329.60;;;;;;5092553;28;20032;-78
2023/10/07 04:26:40;;;;;;;26.58;15.38;;;308.00;2304.00;;;;;;5094961;28;20023;-81
2023/10/07 04:29:14;;;;;;;28.30;15.68;;;308.10;2304.00;;;;;;5095534;28;20024;-78
2023/10/07 04:31:47;;;;;;;34.90;16.23;;;308.10;2304.00;;;;;;5094630;28;20118;-81
2023/10/07 04:34:18;;;;;;;32.53;18.42;;;308.10;2304.00;;;;;;5110264;28;20050;-79
2023/10/07 04:42:21;;;;;;;44.97;24.08;;;307.80;2304.00;;;;;;5114939;28;20035;-80
2023/10/07 04:49:57;;;;;;;48.03;25.30;;;307.70;2304.00;;;;;;5106275;28;20149;-81
2023/10/07 04:52:30;;;;;;;43.85;24.80;;;307.80;2304.00;;;;;;5092990;28;20031;-82
2023/10/07 04:55:01;;;;;;;45.05;26.17;;;307.80;2304.00;;;;;;5094553;28;20030;-80
2023/10/07 04:58:13;;;;;;;57.10;27.58;;;307.90;2304.00;;;;;;5094639;28;20027;-81
2023/10/07 05:03:08;;;;;;;47.30;25.08;;;307.90;2304.00;;;;;;5115019;28;20055;-81
2023/10/07 05:05:34;;;;;;;49.13;23.77;;;307.80;2304.00;;;;;;5093441;28;20392;-79
2023/10/07 05:08:19;;;;;;;37.83;23.92;;;307.70;2304.00;;;;;;5095776;28;20028;-78
2023/10/07 05:11:04;;;;;;;45.28;23.10;;;307.70;2304.00;;;;;;5096185;28;20035;-80
2023/10/07 05:13:32;;;;;;;41.47;21.95;;;307.80;2304.00;;;;;;5113875;28;20040;-77
2023/10/07 05:15:58;;;;;;;39.63;23.15;;;307.80;2304.00;;;;;;5114362;28;20024;-81
2023/10/07 05:18:24;;;;;;;41.78;21.50;;;307.80;2304.00;;;;;;5084511;28;20038;-84
2023/10/07 05:20:51;;;;;;;42.63;22.98;;;307.90;2304.00;;;;;;5096333;28;20489;-78
2023/10/07 05:23:18;;;;;;;39.25;22.25;;;307.90;2304.00;;;;;;5114112;28;20507;-81
2023/10/07 05:25:50;;;;;;;43.58;22.40;;;307.90;2304.00;;;;;;5114107;28;20031;-83
2023/10/07 05:28:20;;;;;;;41.38;22.05;;;308.10;2304.00;;;;;;5096600;28;20029;-81
2023/10/07 05:30:52;;;;;;;42.53;22.20;;;308.00;2304.00;;;;;;5091408;28;20027;-79
2023/10/07 05:33:20;;;;;;;43.80;20.45;;;308.00;2304.00;;;;;;5095817;28;20023;-85
2023/10/07 05:35:49;;;;;;;37.00;20.58;;;308.00;2304.00;;;;;;5114139;28;20048;-79
2023/10/07 05:38:19;;;;;;;33.38;21.05;;;308.10;2304.00;;;;;;5110179;28;20027;-78
2023/10/07 05:40:49;;;;;;;35.40;20.75;;;308.10;2304.00;;;;;;5113521;28;20026;-84
2023/10/07 05:43:16;;;;;;;39.67;21.77;;;308.10;2304.00;;;;;;5095546;28;20054;-83
2023/10/07 05:45:42;;;;;;;36.47;21.05;;;308.10;2304.00;;;;;;5098184;28;20019;-81
2023/10/07 05:48:08;;;;;;;41.08;21.33;;;308.10;2304.00;;;;;;5095955;28;20034;-81
2023/10/07 05:50:34;;;;;;;35.38;20.77;;;332.90;2329.60;;;;;;5095869;28;20024;-82
2023/10/07 05:53:04;;;;;;;41.63;21.90;;;333.20;2329.60;;;;;;5095307;28;20111;-81
2023/10/07 05:55:33;;;;;;;38.05;22.17;;;333.20;2329.60;;;;;;5095622;28;20023;-82
2023/10/07 05:58:01;;;;;;;35.92;20.92;;;333.30;2329.60;;;;;;5091366;28;20049;-78
2023/10/07 06:00:31;;;;;;;41.78;20.38;;;333.50;2329.60;;;;;;5110326;28;20020;-83
2023/10/07 06:02:57;;;;;;;31.48;20.15;;;333.70;2329.60;;;;;;5096368;28;20057;-85
2023/10/07 06:05:27;;;;;;;37.00;20.80;;;358.40;2329.60;;;;;;5095943;28;20027;-80
2023/10/07 06:07:57;;;;;;;37.83;21.27;;;358.40;2329.60;;;;;;5095447;28;20076;-80
2023/10/07 06:10:24;;;;;;;39.00;22.17;;;358.60;2329.60;;;;;;5094683;28;20030;-79
2023/10/07 06:12:53;;;;;;;35.28;20.15;;;358.70;2329.60;;;;;;5103559;28;20101;-79
2023/10/07 06:15:19;;;;;;;32.53;18.80;;;358.90;2329.60;;;;;;5094927;28;20055;-78
2023/10/07 06:17:45;;;;;;;37.53;20.20;;;358.70;2329.60;;;;;;5104198;28;20033;-80
2023/10/07 06:20:17;;;;;;;40.75;21.58;;;358.80;2329.60;;;;;;5093025;28;20106;-80
2023/10/07 06:22:48;;;;;;;41.45;22.33;;;358.80;2329.60;;;;;;5109432;28;20039;-79
2023/10/07 06:25:15;;;;;;;34.10;20.75;;;359.00;2329.60;;;;;;5094971;28;20020;-79
2023/10/07 06:27:43;;;;;;;36.08;21.02;;;384.00;2329.60;;;;;;5091233;28;20050;-79
2023/10/07 06:30:20;;;;;;;40.53;21.55;;;384.40;2329.60;;;;;;5100671;28;20354;-81
2023/10/07 06:32:54;;;;;;;37.55;21.13;;;384.70;2329.60;;;;;;5112475;28;20027;-81
2023/10/07 06:35:25;;;;;;;36.20;21.00;;;384.70;2329.60;;;;;;5093963;28;20023;-81
2023/10/07 06:37:57;;;;;;;35.58;20.95;;;384.90;2329.60;;;;;;5109933;28;20048;-83
2023/10/07 07:08:46;;;;;;;30.52;19.80;;;410.30;2355.20;;;;;;6163622;22;1429808;-76
2023/10/07 07:11:16;;;;;;;30.45;19.30;;;461.70;2380.80;;;;;;6223387;23;20031;-77
2023/10/07 07:13:44;;;;;;;27.17;17.85;;;461.70;2380.80;;;;;;6223466;23;20414;-77
2023/10/07 07:16:13;;;;;;;34.53;19.30;;;486.40;2380.80;;;;;;6223619;23;20004;-75
2023/10/07 07:18:40;;;;;;;30.58;19.05;;;486.40;2380.80;;;;;;6223931;23;20009;-76
2023/10/07 07:21:41;;;;;;;28.00;17.90;;;486.70;2380.80;;;;;;6223517;23;20512;-76
2023/10/07 07:24:00;;;;;;;51.50;27.08;;;486.50;2380.80;;;;;;6220951;23;20001;-77
2023/10/07 07:26:26;;;;;;;32.83;20.10;;;486.80;2380.80;;;;;;6222313;23;20008;-79
2023/10/07 07:28:56;;;;;;;32.85;19.58;;;487.10;2380.80;;;;;;6222429;23;20031;-78
2023/10/07 07:31:26;;;;;;;33.38;17.50;;;487.10;2380.80;;;;;;6222318;23;20011;-77
2023/10/07 07:33:52;;;;;;;25.30;15.30;;;512.30;2380.80;;;;;;6224032;23;20004;-76
2023/10/07 07:36:24;;;;;;;24.52;17.23;;;512.20;2380.80;;;;;;6222794;23;20338;-74
2023/10/07 07:38:52;;;;;;;40.40;23.83;;;512.10;2380.80;;;;;;6222216;23;20103;-79
2023/10/07 07:41:29;;;;;;;48.20;17.60;;;512.10;2380.80;;;;;;6223512;23;20012;-76
2023/10/07 07:44:02;;;;;;;31.75;20.00;;;512.00;2380.80;;;;;;6223532;23;20005;-77
2023/10/07 07:46:29;;;;;;;32.45;16.65;;;512.30;2380.80;;;;;;6223654;23;20028;-77
2023/10/07 07:48:56;;;;;;;30.30;16.42;;;512.10;2380.80;;;;;;6223025;23;20011;-74
2023/10/07 07:51:25;;;;;;;26.92;14.95;;;512.50;2380.80;;;;;;6223155;23;20020;-75
2023/10/07 07:53:52;;;;;;;25.67;15.77;;;512.90;2380.80;;;;;;6223449;23;20008;-74
2023/10/07 07:56:19;;;;;;;25.85;14.07;;;537.70;2406.40;;;;;;6223078;23;20000;-75
2023/10/07 07:58:47;;;;;;;23.13;12.98;;;512.90;2380.80;;;;;;6223582;23;20035;-73
2023/10/07 08:01:38;;;;;;;22.52;12.85;;;512.60;2380.80;;;;;;6221485;23;20001;-74
2023/10/07 08:04:09;;;;;;;23.77;12.25;;;537.60;2406.40;;;;;;6222611;23;20011;-73
2023/10/07 08:06:36;;;;;;;19.85;10.45;;;537.70;2406.40;;;;;;6226437;23;20016;-74
2023/10/07 08:09:03;;;;;;;20.75;10.73;;;537.60;2406.40;;;;;;6248197;23;20000;-75
2023/10/07 08:11:35;;;;;;;20.23;11.55;;;537.80;2406.40;;;;;;6219990;23;20012;-74
2023/10/07 08:14:10;;;;;;;20.80;11.35;;;537.90;2406.40;;;;;;6219054;23;20000;-75
2023/10/07 08:16:51;;;;;;;15.48;9.60;;;538.20;2355.20;;;;;;6246122;23;20430;-74
2023/10/07 08:19:20;;;;;;;18.77;9.82;;;538.40;2304.00;;;;;;6247177;23;20010;-74
2023/10/07 08:21:53;;;;;;;17.38;10.07;;;563.20;2278.40;;;;;;6246730;23;20001;-74
2023/10/07 08:24:23;;;;;;;19.80;10.70;;;563.30;2278.40;;;;;;6246817;23;20027;-75
2023/10/07 08:26:49;;;;;;;22.17;10.07;;;563.30;2278.40;;;;;;6219856;23;20058;-77
2023/10/07 08:29:32;;;;;;;17.45;9.63;;;563.60;2227.20;;;;;;6246635;23;19997;-74
2023/10/07 08:32:08;;;;;;;18.52;9.55;;;564.00;2176.00;;;;;;6219291;23;20004;-74
2023/10/07 08:34:34;;;;;;;28.30;13.82;;;564.00;2124.80;;;;;;6219660;23;20050;-74
2023/10/07 08:37:03;;;;;;;18.55;10.00;;;588.80;2176.00;;;;;;6246418;23;20012;-74
2023/10/07 08:39:36;;;;;;;21.58;9.85;;;564.00;2073.60;;;;;;6246543;23;20003;-74
2023/10/07 08:42:12;;;;;;;20.45;8.45;;;588.80;2048.00;;;;;;6246425;23;20070;-74
2023/10/07 08:44:38;;;;;;;19.80;8.48;;;564.10;2048.00;;;;;;6246275;23;20058;-74
2023/10/07 08:47:10;;;;;;;17.17;8.82;;;588.90;2022.40;;;;;;6246539;23;20004;-74
2023/10/07 08:49:37;;;;;;;20.40;8.70;;;588.90;1996.80;;;;;;6246655;23;20091;-75
2023/10/07 08:52:08;;;;;;;16.55;8.35;;;589.10;1996.80;;;;;;6246843;23;20003;-74
2023/10/07 08:54:37;;;;;;;18.60;8.20;;;589.10;1971.20;;;;;;6219851;23;20005;-74
2023/10/07 08:57:37;;;;;;;18.90;8.25;;;589.40;1894.40;;;;;;6246345;23;20008;-73
2023/10/07 08:59:59;;;;;;;12.27;6.22;;;;;;;;;;6240736;23;20046;-73
2023/10/07 09:02:26;;;;;;;15.68;7.90;;;614.40;1792.00;;;;;;6246126;23;20004;-71
2023/10/07 09:04:57;;;;;;;13.38;6.80;;;589.70;1766.40;;;;;;6245701;23;20071;-74
2023/10/07 09:07:30;;;;;;;13.15;6.22;;;589.70;1715.20;;;;;;6246095;23;20074;-74
2023/10/07 09:10:06;;;;;;;15.70;6.63;;;;;;;;;;6246219;23;20072;-74
2023/10/07 09:12:36;;;;;;;13.00;6.57;;;615.00;1689.60;;;;;;6245892;23;20083;-73
2023/10/07 09:15:12;;;;;;;15.23;6.82;;;615.30;1689.60;;;;;;6246389;23;20000;-73
2023/10/07 09:17:41;;;;;;;10.23;5.90;;;640.10;1638.40;;;;;;6246383;23;20012;-75
2023/10/07 09:20:17;;;;;;;9.40;5.50;;;640.50;1561.60;;;;;;6245982;23;20008;-73
2023/10/07 09:22:46;;;;;;;11.05;5.30;;;640.80;1484.80;;;;;;6218293;23;20378;-73
2023/10/07 09:25:18;;;;;;;9.63;5.45;;;640.90;1510.40;;;;;;6219362;23;20008;-73
2023/10/07 09:27:56;;;;;;;11.90;5.90;;;665.70;1536.00;;;;;;6246355;23;20000;-75
2023/10/07 09:30:35;;;;;;;12.40;4.25;;;665.60;1484.80;;;;;;6219327;23;20004;-74
2023/10/07 09:33:12;;;;;;;18.10;5.25;;;665.90;1459.20;;;;;;6246134;23;20023;-74
2023/10/07 09:35:42;;;;;;;11.07;5.10;;;666.00;1459.20;;;;;;6219153;23;20389;-73
2023/10/07 09:38:12;;;;;;;10.57;6.15;;;665.60;1484.80;;;;;;6245873;23;20020;-73
2023/10/07 09:43:33;;;;;;;15.10;6.85;;;666.40;1433.60;;;;;;6256271;23;20011;-73
2023/10/07 09:45:58;;;;;;;;;;;691.20;1433.60;;;;;;6219601;23;20000;-74
2023/10/07 09:48:30;;;;;;;11.37;6.63;;;691.30;1433.60;;;;;;6219351;23;19900;-75
2023/10/07 09:50:58;;;;;;;15.60;7.25;;;691.30;1408.00;;;;;;6245909;23;20229;-73
2023/10/07 09:53:46;;;;;;;20.92;6.13;;;691.70;1408.00;;;;;;6219010;23;20311;-73
2023/10/07 09:56:33;;;;;;;14.02;6.22;;;691.80;1356.80;;;;;;6245979;23;20004;-74
2023/10/07 09:59:22;;;;;;;12.60;5.60;;;691.50;1433.60;;;;;;6246059;23;20058;-75
2023/10/07 10:02:42;;;;;;;13.15;5.75;;;691.80;1356.80;;;;;;6246050;23;20130;-73
2023/10/07 10:05:29;;;;;;;15.23;6.60;;;691.30;1408.00;;;;;;6245087;23;20342;-73
2023/10/07 10:08:19;;;;;;;16.15;6.47;;;692.00;1408.00;;;;;;6218652;23;20086;-74
2023/10/07 10:10:49;;;;;;;10.98;5.82;;;716.90;1356.80;;;;;;6219174;23;20038;-74
2023/10/07 10:16:19;;;;;;;16.65;7.53;;;717.10;1356.80;;;;;;6245518;23;20023;-76
2023/10/07 10:18:53;;;;;;;13.55;6.22;;;717.40;1356.80;;;;;;6218968;23;20012;-74
2023/10/07 10:21:22;;;;;;;8.35;5.60;;;717.60;1331.20;;;;;;6245734;23;20086;-74
2023/10/07 10:23:51;;;;;;;13.52;4.93;;;717.60;1280.00;;;;;;6245640;23;20426;-74
2023/10/07 10:26:22;;;;;;;10.70;5.93;;;717.60;1280.00;;;;;;6246080;23;20114;-75
2023/10/07 10:29:03;;;;;;;10.13;5.65;;;717.50;1280.00;;;;;;6245813;23;20000;-74
2023/10/07 10:31:40;;;;;;;10.07;5.07;;;717.60;1305.60;;;;;;6245420;23;20004;-75
2023/10/07 10:34:08;;;;;;;12.43;5.70;;;717.70;1254.40;;;;;;6245347;23;19996;-74
2023/10/07 10:36:43;;;;;;;11.88;5.45;;;742.40;1254.40;;;;;;6245575;23;20103;-74
2023/10/07 10:39:22;;;;;;;9.10;5.15;;;742.50;1280.00;;;;;;6245531;23;20008;-74
2023/10/07 10:41:48;;;;;;;17.75;5.82;;;742.50;1280.00;;;;;;6245701;23;19996;-76
2023/10/07 10:44:16;;;;;;;11.73;5.63;;;716.80;1280.00;;;;;;6218636;23;20130;-75
2023/10/07 10:47:00;;;;;;;12.80;5.25;;;717.40;1305.60;;;;;;6218535;23;20007;-74
2023/10/07 10:49:25;;;;;;;10.25;5.60;;;717.60;1254.40;;;;;;6245879;23;20457;-73
2023/10/07 10:51:55;;;;;;;12.20;6.05;;;716.90;1331.20;;;;;;6245151;23;20074;-74
2023/10/07 10:54:23;;;;;;;15.48;6.18;;;717.40;1280.00;;;;;;6245448;23;20004;-74
2023/10/07 10:56:58;;;;;;;10.27;4.85;;;717.10;1280.00;;;;;;6218358;23;20023;-73
2023/10/07 10:59:42;;;;;;;9.90;5.83;;;717.30;1280.00;;;;;;6245363;23;20000;-73
2023/10/07 11:02:17;;;;;;;13.13;5.90;;;717.50;1254.40;;;;;;6245182;23;20015;-75
2023/10/07 11:04:50;;;;;;;24.20;6.15;;;717.70;1254.40;;;;;;6218489;23;20019;-74
2023/10/07 11:07:16;;;;;;;9.32;5.85;;;717.50;1254.40;;;;;;6245060;23;20054;-74
2023/10/07 11:09:43;;;;;;;9.70;5.22;;;742.40;1254.40;;;;;;6245329;23;20000;-74
2023/10/07 11:12:09;;;;;;;8.63;4.90;;;717.70;1203.20;;;;;;6245141;23;20061;-73
2023/10/07 11:14:41;;;;;;;9.18;5.15;;;717.70;1228.80;;;;;;6218802;23;20004;-74
2023/10/07 11:17:09;;;;;;;11.48;5.18;;;717.50;1254.40;;;;;;6245119;23;20013;-74
2023/10/07 11:19:47;;;;;;;7.75;5.25;;;742.40;1254.40;;;;;;6245307;23;20008;-74
2023/10/07 11:22:14;;;;;;;11.95;5.25;;;742.60;1203.20;;;;;;6245580;23;20004;-74
2023/10/07 11:24:39;;;;;;;10.68;5.40;;;717.50;1203.20;;;;;;6244740;23;20050;-73
2023/10/07 11:27:08;;;;;;;13.85;5.05;;;717.50;1228.80;;;;;;6217929;23;20008;-73
2023/10/07 11:29:35;;;;;;;10.35;5.80;;;742.50;1228.80;;;;;;6218466;23;20322;-73
2023/10/07 11:32:03;;;;;;;11.18;4.78;;;742.80;1203.20;;;;;;6245085;23;20368;-74
2023/10/07 11:34:37;;;;;;;10.90;4.85;;;742.60;1177.60;;;;;;6218314;23;20000;-75
2023/10/07 11:37:10;;;;;;;8.45;4.57;;;742.80;1203.20;;;;;;6218446;23;20082;-74
2023/10/07 11:39:43;;;;;;;12.45;5.30;;;742.70;1203.20;;;;;;6218476;23;20031;-73
2023/10/07 11:42:11;;;;;;;7.97;5.07;;;742.50;1203.20;;;;;;6245072;23;20411;-75
2023/10/07 11:44:38;;;;;;;9.32;4.68;;;742.80;1203.20;;;;;;6220006;23;20091;-74
2023/10/07 11:47:06;;;;;;;10.35;4.88;;;742.70;1203.20;;;;;;6219169;23;20004;-74
2023/10/07 11:49:32;;;;;;;12.98;5.47;;;742.50;1228.80;;;;;;6220016;23;20004;-74
2023/10/07 11:51:58;;;;;;;12.57;5.53;;;742.40;1228.80;;;;;;6247287;23;20045;-74
2023/10/07 11:54:25;;;;;;;10.18;4.97;;;742.40;1228.80;;;;;;6247069;23;20067;-74
2023/10/07 11:56:50;;;;;;;10.70;4.95;;;717.70;1203.20;;;;;;6246785;23;20016;-76
2023/10/07 11:59:19;;;;;;;11.70;5.00;;;717.50;1203.20;;;;;;6247038;23;20064;-72
2023/10/07 12:01:47;;;;;;;10.88;5.18;;;717.50;1203.20;;;;;;6246827;23;20032;-74
2023/10/07 12:04:13;;;;;;;8.40;4.93;;;717.50;1203.20;;;;;;6247337;23;20401;-74
2023/10/07 12:06:39;;;;;;;9.27;5.35;;;717.30;1203.20;;;;;;6219605;23;20414;-74
2023/10/07 12:09:07;;;;;;;11.93;4.95;;;717.10;1203.20;;;;;;6220095;23;20091;-74
2023/10/07 12:11:33;;;;;;;23.75;5.30;;;717.20;1228.80;;;;;;6219565;23;20004;-73
2023/10/07 12:13:59;;;;;;;14.70;5.38;;;717.40;1203.20;;;;;;6219241;23;20000;-74
2023/10/07 12:16:25;;;;;;;10.25;5.60;;;717.40;1203.20;;;;;;6246663;23;20031;-74
2023/10/07 12:18:50;;;;;;;11.52;6.18;;;717.30;1203.20;;;;;;6220159;23;20019;-73
2023/10/07 12:21:17;;;;;;;14.07;6.32;;;717.40;1228.80;;;;;;6246857;23;19996;-73
2023/10/07 12:23:43;;;;;;;11.68;5.80;;;717.40;1203.20;;;;;;6219652;23;20022;-74
2023/10/07 12:26:12;;;;;;;12.52;5.75;;;717.20;1203.20;;;;;;6246825;23;20003;-75
2023/10/07 12:28:38;;;;;;;15.27;6.50;;;717.20;1203.20;;;;;;6247023;23;19996;-74
2023/10/07 12:31:13;;;;;;;13.27;6.57;;;717.30;1177.60;;;;;;6246446;23;20007;-74
2023/10/07 12:33:39;;;;;;;15.10;7.30;;;717.30;1203.20;;;;;;6246342;23;20075;-74
2023/10/07 12:36:15;;;;;;;12.55;7.30;;;717.10;1228.80;;;;;;6245659;23;20023;-74
2023/10/07 12:38:44;;;;;;;15.30;8.00;;;716.80;1228.80;;;;;;6246592;23;20039;-73
2023/10/07 12:41:12;;;;;;;15.02;9.52;;;716.80;1228.80;;;;;;6219739;23;20000;-74
2023/10/07 12:43:38;;;;;;;14.75;8.48;;;716.80;1203.20;;;;;;6246631;23;20066;-73
2023/10/07 12:46:10;;;;;;;13.05;7.95;;;716.80;1203.20;;;;;;6219562;23;20442;-74
2023/10/07 12:48:42;;;;;;;12.57;7.10;;;692.00;1203.20;;;;;;6220458;23;20035;-75
2023/10/07 12:51:08;;;;;;;13.73;8.00;;;692.00;1177.60;;;;;;6246664;23;20369;-74
2023/10/07 12:53:34;;;;;;;14.07;7.70;;;691.70;1228.80;;;;;;6246385;23;19996;-73
2023/10/07 12:56:12;;;;;;;13.15;7.82;;;691.70;1203.20;;;;;;6246462;23;19993;-74
2023/10/07 12:58:39;;;;;;;13.50;7.03;;;691.80;1228.80;;;;;;6219994;23;20466;-75
2023/10/07 13:01:11;;;;;;;13.88;7.90;;;691.60;1228.80;;;;;;6219291;23;20488;-74
2023/10/07 13:03:43;;;;;;;15.60;8.10;;;691.50;1228.80;;;;;;6246512;23;20083;-74
2023/10/07 13:06:10;;;;;;;19.13;8.25;;;691.30;1254.40;;;;;;6218809;23;20063;-74
2023/10/07 13:08:39;;;;;;;10.88;7.55;;;666.50;1280.00;;;;;;6217696;23;20047;-74
2023/10/07 13:11:13;;;;;;;16.92;8.10;;;666.30;1254.40;;;;;;6218949;23;20004;-75
2023/10/07 13:13:40;;;;;;;11.10;6.88;;;666.40;1254.40;;;;;;6246127;23;20007;-75
2023/10/07 13:16:10;;;;;;;14.77;7.43;;;666.40;1280.00;;;;;;6219074;23;20050;-75
2023/10/07 13:18:44;;;;;;;17.17;7.55;;;666.40;1280.00;;;;;;6246016;23;20064;-74
2023/10/07 13:21:19;;;;;;;12.95;7.78;;;666.30;1280.00;;;;;;6212132;23;20000;-74
2023/10/07 13:23:46;;;;;;;14.35;7.75;;;666.40;1254.40;;;;;;6219055;23;20011;-74
2023/10/07 13:26:12;;;;;;;16.77;7.78;;;666.40;1254.40;;;;;;6219262;23;20004;-72
2023/10/07 13:28:39;;;;;;;14.00;8.80;;;666.40;1280.00;;;;;;6246176;23;20007;-74
2023/10/07 13:31:07;;;;;;;14.90;8.95;;;666.30;1280.00;;;;;;6245755;23;20004;-75
2023/10/07 13:33:36;;;;;;;19.05;9.23;;;666.30;1280.00;;;;;;6245750;23;20028;-74
2023/10/07 13:36:03;;;;;;;16.48;8.93;;;666.10;1305.60;;;;;;6245594;23;20062;-74